Time;durP1;ratioP1;P1;durP2;ratioP2;P2;SDS_P1;SDS_P2;PMS_P1;PMS_P2;Temp;Humidity;BMP_temperature;BMP_pressure;BME280_temperature;BME280_humidity;BME280_pressure;Samples;Min_cycle;Max_cycle;Signal;HPM_P1;HPM_P2
2021/12/21 00:01:20;;;;;;;12.03;7.17;;;;;;;-1.55;96.33;98904.78;5078757;28;20432;-71
2021/12/21 00:03:46;;;;;;;13.20;7.40;;;;;;;-1.63;96.03;98901.94;5077543;28;20432;-71
2021/12/21 00:06:13;;;;;;;12.40;7.13;;;;;;;-1.64;96.32;98897.69;5077574;28;20445;-71
2021/12/21 00:08:39;;;;;;;17.70;7.13;;;;;;;-1.69;96.25;98892.03;5077955;28;20793;-71
2021/12/21 00:11:06;;;;;;;9.53;5.90;;;;;;;-1.69;96.63;98901.59;5077564;28;20467;-71
2021/12/21 00:13:53;;;;;;;10.83;7.00;;;;;;;-1.76;96.31;98896.06;5077780;28;20437;-71
2021/12/21 00:16:41;;;;;;;13.60;6.63;;;;;;;-1.72;96.58;98887.03;5077579;28;20469;-71
2021/12/21 00:19:20;;;;;;;12.50;7.43;;;;;;;-1.76;96.29;98885.63;5077234;28;20425;-71
2021/12/21 00:21:54;;;;;;;16.57;6.67;;;;;;;-1.78;97.03;98887.53;5078063;28;20450;-71
2021/12/21 00:24:23;;;;;;;11.50;6.50;;;;;;;-1.77;95.96;98878.75;5077548;28;20429;-71
2021/12/21 00:26:49;;;;;;;15.27;7.30;;;;;;;-1.77;96.29;98880.53;5077584;28;20429;-71
2021/12/21 00:29:16;;;;;;;12.30;6.20;;;;;;;-1.78;96.98;98877.13;5077493;28;20429;-71
2021/12/21 00:31:42;;;;;;;12.50;6.67;;;;;;;-1.79;96.20;98879.84;5077172;28;20417;-71
2021/12/21 00:34:09;;;;;;;9.77;6.40;;;;;;;-1.85;96.10;98888.16;5077083;28;20434;-71
2021/12/21 00:36:37;;;;;;;15.20;6.40;;;;;;;-1.85;96.19;98885.56;5077337;28;20511;-71
2021/12/21 00:39:07;;;;;;;9.30;6.20;;;;;;;-1.84;96.81;98882.81;5077322;28;20418;-71
2021/12/21 00:41:35;;;;;;;13.17;6.93;;;;;;;-1.84;95.83;98875.00;5077002;28;20475;-71
2021/12/21 00:44:01;;;;;;;10.27;6.53;;;;;;;-1.76;95.94;98870.00;5076986;28;20829;-72
2021/12/21 00:46:28;;;;;;;13.03;6.47;;;;;;;-1.83;96.34;98868.84;5077131;28;20461;-72
2021/12/21 00:49:00;;;;;;;13.03;6.90;;;;;;;-1.91;96.35;98865.16;5077213;28;20426;-72
2021/12/21 00:51:28;;;;;;;12.47;7.23;;;;;;;-1.91;97.29;98866.00;5076792;28;20429;-72
2021/12/21 00:53:54;;;;;;;18.07;7.30;;;;;;;-1.77;96.80;98860.53;5077077;28;20417;-72
2021/12/21 00:56:21;;;;;;;8.87;5.87;;;;;;;-1.83;96.25;98855.81;5076896;28;20480;-72
2021/12/21 00:58:47;;;;;;;11.40;7.10;;;;;;;-1.79;96.62;98862.44;5076680;28;20859;-72
2021/12/21 01:01:13;;;;;;;12.23;7.00;;;;;;;-1.72;96.93;98862.78;5076972;28;20428;-72
2021/12/21 01:03:47;;;;;;;11.83;6.83;;;;;;;-1.76;96.84;98859.56;5076950;28;20422;-73
2021/12/21 01:06:20;;;;;;;10.40;6.90;;;;;;;-1.81;96.76;98850.47;5076839;28;20460;-72
2021/12/21 01:09:00;;;;;;;13.50;6.93;;;;;;;-1.82;96.96;98849.63;5076811;28;20422;-73
2021/12/21 01:11:31;;;;;;;12.43;6.70;;;;;;;-1.84;97.35;98854.16;5076585;28;20978;-73
2021/12/21 01:14:09;;;;;;;11.07;6.63;;;;;;;-1.76;96.51;98856.97;5076125;28;20495;-73
2021/12/21 01:16:41;;;;;;;11.20;6.23;;;;;;;-1.83;96.68;98850.59;5077014;28;20522;-72
2021/12/21 01:19:16;;;;;;;10.33;6.60;;;;;;;-1.87;96.30;98853.56;5077277;28;20425;-72
2021/12/21 01:21:53;;;;;;;12.40;6.37;;;;;;;-1.80;96.48;98852.13;5076892;28;20433;-72
2021/12/21 01:24:41;;;;;;;13.97;6.43;;;;;;;-1.80;96.11;98847.72;5077070;28;20433;-75
2021/12/21 01:27:26;;;;;;;10.27;6.03;;;;;;;-1.86;96.87;98848.22;5077115;28;20524;-75
2021/12/21 01:30:03;;;;;;;11.53;6.23;;;;;;;-1.79;96.85;98846.78;5076346;28;20421;-72
2021/12/21 01:32:44;;;;;;;11.73;6.10;;;;;;;-1.75;96.01;98842.97;5077030;28;20441;-72
2021/12/21 01:35:15;;;;;;;10.33;6.60;;;;;;;-1.85;96.15;98839.44;5076897;28;20465;-72
2021/12/21 01:37:52;;;;;;;9.27;6.00;;;;;;;-1.82;96.29;98840.97;5076534;28;20445;-72
2021/12/21 01:40:33;;;;;;;10.17;5.87;;;;;;;-1.85;96.65;98839.44;5076524;28;20469;-72
2021/12/21 01:43:19;;;;;;;11.83;5.77;;;;;;;-1.76;95.91;98845.72;5076485;28;20430;-73
2021/12/21 01:51:16;;;;;;;11.73;5.00;;;;;;;-1.65;95.07;98843.91;5076476;28;20401;-72
2021/12/21 01:53:43;;;;;;;11.60;5.23;;;;;;;-1.58;94.88;98836.41;5076441;28;20422;-73
2021/12/21 01:56:10;;;;;;;10.10;5.17;;;;;;;-1.65;95.29;98840.47;5075914;28;20947;-73
2021/12/21 01:58:39;;;;;;;10.07;5.37;;;;;;;-1.64;94.75;98847.31;5076353;28;20512;-72
2021/12/21 02:01:08;;;;;;;10.13;4.87;;;;;;;-1.69;95.47;98841.66;5076306;28;20429;-73
2021/12/21 02:03:35;;;;;;;8.87;5.20;;;;;;;-1.67;95.48;98847.59;5075977;28;20417;-73
2021/12/21 02:06:01;;;;;;;10.43;4.97;;;;;;;-1.76;95.18;98848.34;5075913;28;20899;-73
2021/12/21 02:08:28;;;;;;;12.07;5.30;;;;;;;-1.91;95.25;98844.31;5076173;28;20456;-72
2021/12/21 02:10:59;;;;;;;9.27;5.00;;;;;;;-1.95;95.01;98848.97;5075972;28;20445;-72
2021/12/21 02:13:30;;;;;;;7.83;4.53;;;;;;;-1.87;95.07;98846.56;5075861;28;20726;-73
2021/12/21 02:15:57;;;;;;;9.77;5.30;;;;;;;-1.96;95.75;98844.69;5076055;28;20473;-72
2021/12/21 02:21:18;;;;;;;11.13;5.10;;;;;;;-2.01;95.09;98825.16;5075613;28;20524;-73
2021/12/21 02:23:46;;;;;;;11.43;5.17;;;;;;;-2.08;94.87;98832.63;5075798;28;20429;-72
2021/12/21 02:26:33;;;;;;;7.57;4.87;;;;;;;-2.08;95.25;98832.63;5077540;28;20908;-72
2021/12/21 02:29:13;;;;;;;11.13;5.17;;;;;;;-2.17;96.02;98824.75;5079774;28;20431;-73
2021/12/21 02:31:42;;;;;;;8.47;5.57;;;;;;;-2.15;95.88;98831.50;5079768;28;20421;-72
2021/12/21 02:34:09;;;;;;;12.30;5.27;;;;;;;-2.21;95.16;98831.94;5079442;28;20840;-73
2021/12/21 02:36:37;;;;;;;10.60;5.37;;;;;;;-2.20;95.92;98836.22;5079304;28;20931;-72
2021/12/21 02:39:06;;;;;;;8.27;5.00;;;;;;;-2.25;95.56;98827.13;5079354;28;20845;-73
2021/12/21 02:41:33;;;;;;;10.00;5.63;;;;;;;-2.24;95.73;98827.00;5079304;28;20844;-72
2021/12/21 02:43:59;;;;;;;9.20;5.33;;;;;;;-2.21;95.82;98831.13;5079224;28;20433;-72
2021/12/21 02:46:26;;;;;;;12.73;5.57;;;;;;;-2.32;95.83;98824.16;5079456;28;20445;-73
2021/12/21 02:48:52;;;;;;;12.47;5.60;;;;;;;-2.32;96.58;98829.38;5079454;28;20456;-73
2021/12/21 02:51:19;;;;;;;8.57;5.27;;;;;;;-2.32;95.69;98829.38;5079110;28;20720;-72
2021/12/21 02:53:45;;;;;;;8.77;5.30;;;;;;;-2.27;95.99;98824.63;5079406;28;20424;-73
2021/12/21 02:56:13;;;;;;;12.47;5.60;;;;;;;-2.33;95.71;98827.72;5079215;28;20477;-72
2021/12/21 02:58:40;;;;;;;10.67;5.67;;;;;;;-2.36;96.51;98817.53;5079325;28;20422;-73
2021/12/21 03:01:09;;;;;;;11.20;5.47;;;;;;;-2.31;95.60;98819.81;5079278;28;20422;-72
2021/12/21 03:03:35;;;;;;;10.03;5.40;;;;;;;-2.34;95.89;98823.44;5079248;28;20432;-73
2021/12/21 03:06:05;;;;;;;7.83;5.13;;;;;;;-2.34;95.29;98822.63;5079142;28;20479;-68
2021/12/21 03:08:38;;;;;;;10.27;5.30;;;;;;;-2.41;95.79;98827.50;5078823;28;20474;-68
2021/12/21 03:11:13;;;;;;;16.93;5.77;;;;;;;-2.34;95.88;98830.44;5078860;28;20461;-68
2021/12/21 03:16:23;;;;;;;9.60;5.27;;;;;;;-2.37;95.46;98823.69;5078683;28;20522;-68
2021/12/21 03:18:50;;;;;;;7.80;4.50;;;;;;;-2.39;95.78;98822.97;5078931;28;20436;-68
2021/12/21 03:21:17;;;;;;;9.47;5.30;;;;;;;-2.36;95.81;98829.72;5078912;28;20503;-68
2021/12/21 03:23:44;;;;;;;10.17;5.13;;;;;;;-2.47;95.18;98822.78;5078577;28;20859;-68
2021/12/21 03:26:10;;;;;;;8.50;5.20;;;;;;;-2.45;95.08;98822.63;5078777;28;20449;-68
2021/12/21 03:28:37;;;;;;;9.40;5.20;;;;;;;-2.58;95.04;98827.97;5078776;28;20422;-68
2021/12/21 03:31:03;;;;;;;11.73;5.67;;;;;;;-2.53;95.69;98831.03;5078737;28;20433;-68
2021/12/21 03:33:29;;;;;;;8.63;5.13;;;;;;;-2.50;95.94;98830.81;5078411;28;20422;-68
2021/12/21 03:35:56;;;;;;;12.27;5.03;;;;;;;-2.56;95.41;98825.25;5078533;28;20768;-68
2021/12/21 03:38:22;;;;;;;13.30;6.23;;;;;;;-2.53;95.00;98825.81;5077760;28;20432;-68
2021/12/21 03:40:48;;;;;;;8.60;4.80;;;;;;;-2.57;95.25;98827.00;5078532;28;20440;-68
2021/12/21 03:43:15;;;;;;;8.30;5.60;;;;;;;-2.54;95.22;98828.53;5078156;28;20853;-68
2021/12/21 03:45:51;;;;;;;9.93;5.17;;;;;;;-2.57;95.03;98821.81;5078382;28;20453;-68
2021/12/21 03:48:17;;;;;;;8.77;5.30;;;;;;;-2.53;94.96;98819.81;5078065;28;20429;-68
2021/12/21 03:50:43;;;;;;;8.83;5.57;;;;;;;-2.57;94.95;98826.19;5078356;28;20430;-68
2021/12/21 03:53:10;;;;;;;12.20;5.93;;;;;;;-2.67;94.68;98823.47;5078306;28;20434;-68
2021/12/21 03:55:36;;;;;;;11.73;5.73;;;;;;;-2.70;95.07;98826.31;5078043;28;20458;-68
2021/12/21 03:58:03;;;;;;;11.43;5.03;;;;;;;-2.75;94.71;98825.00;5077861;28;20836;-68
2021/12/21 04:00:30;;;;;;;9.83;4.87;;;;;;;-2.77;94.96;98819.91;5077995;28;20429;-68
2021/12/21 04:02:56;;;;;;;11.43;5.70;;;;;;;-2.70;94.51;98826.31;5078068;28;20421;-68
2021/12/21 04:05:22;;;;;;;10.20;5.37;;;;;;;-2.70;94.44;98825.47;5077883;28;20461;-68
2021/12/21 04:07:49;;;;;;;11.37;5.70;;;;;;;-2.80;95.06;98814.94;5077860;28;20417;-68
2021/12/21 04:10:15;;;;;;;10.27;5.27;;;;;;;-2.83;95.51;98825.59;5077661;28;20446;-68
2021/12/21 04:12:42;;;;;;;11.37;5.57;;;;;;;-2.77;95.29;98817.31;5077731;28;20430;-68
2021/12/21 04:15:09;;;;;;;10.77;5.50;;;;;;;-2.77;95.32;98819.91;5077675;28;20464;-68
2021/12/21 04:17:35;;;;;;;10.07;5.97;;;;;;;-2.77;94.63;98822.53;5077797;28;20765;-68
2021/12/21 04:20:02;;;;;;;10.30;4.83;;;;;;;-2.84;94.55;98831.72;5078151;28;20422;-68
2021/12/21 04:22:29;;;;;;;11.13;5.57;;;;;;;-2.73;94.62;98823.09;5077568;28;20426;-68
2021/12/21 04:24:55;;;;;;;9.73;5.60;;;;;;;-2.77;94.76;98824.28;5077541;28;20449;-68
2021/12/21 04:27:22;;;;;;;9.93;5.73;;;;;;;-2.75;94.79;98820.63;5077515;28;20424;-68
2021/12/21 04:29:48;;;;;;;10.73;5.53;;;;;;;-2.83;94.85;98830.81;5077518;28;20422;-68
2021/12/21 04:32:14;;;;;;;10.63;5.40;;;;;;;-2.94;95.12;98832.56;5077791;28;20697;-68
2021/12/21 04:34:42;;;;;;;10.43;5.70;;;;;;;-2.91;96.09;98825.34;5077106;28;20457;-68
2021/12/21 04:37:09;;;;;;;11.20;6.07;;;;;;;-2.82;95.72;98829.00;5077039;28;20484;-68
2021/12/21 04:39:41;;;;;;;11.40;6.07;;;;;;;-2.82;95.45;98829.84;5076641;28;20421;-69
2021/12/21 04:42:08;;;;;;;12.50;5.77;;;;;;;-2.81;95.09;98834.09;5076642;28;20930;-68
2021/12/21 04:44:34;;;;;;;12.93;5.73;;;;;;;-2.82;95.31;98836.81;5076945;28;20457;-68
2021/12/21 04:47:01;;;;;;;11.20;5.03;;;;;;;-2.82;95.09;98829.00;5077025;28;20429;-68
2021/12/21 04:49:28;;;;;;;13.70;6.60;;;;;;;-2.87;95.07;98829.38;5076990;28;20443;-69
2021/12/21 04:51:54;;;;;;;10.47;5.90;;;;;;;-2.89;95.34;98827.84;5076989;28;20433;-68
2021/12/21 04:54:21;;;;;;;9.13;5.40;;;;;;;-2.78;94.46;98815.66;5076649;28;20883;-69
2021/12/21 04:56:47;;;;;;;9.27;5.17;;;;;;;-2.85;94.56;98824.88;5076911;28;20469;-68
2021/12/21 04:59:14;;;;;;;10.63;5.40;;;;;;;-2.96;95.10;98824.88;5076885;28;20433;-68
2021/12/21 05:01:40;;;;;;;10.93;5.80;;;;;;;-2.91;94.67;98817.56;5076484;28;20845;-68
2021/12/21 05:04:07;;;;;;;8.40;5.10;;;;;;;-2.96;94.80;98817.06;5076709;28;20429;-68
2021/12/21 05:06:33;;;;;;;13.33;5.50;;;;;;;-2.92;95.23;98817.66;5076532;28;20450;-68
2021/12/21 05:09:09;;;;;;;11.03;5.80;;;;;;;-2.98;94.77;98816.34;5076551;28;20421;-68
2021/12/21 05:11:36;;;;;;;11.57;5.80;;;;;;;-2.93;94.33;98824.63;5076412;28;20445;-68
2021/12/21 05:14:06;;;;;;;10.80;5.63;;;;;;;-2.88;94.88;98819.09;5076307;28;20437;-68
2021/12/21 05:16:33;;;;;;;9.90;5.40;;;;;;;-2.92;94.61;98821.09;5076379;28;20484;-68
2021/12/21 05:18:59;;;;;;;10.67;5.60;;;;;;;-3.03;93.88;98809.84;5076267;28;20721;-68
2021/12/21 05:21:25;;;;;;;12.87;5.70;;;;;;;-3.04;93.80;98811.63;5076531;28;20722;-70
2021/12/21 05:23:52;;;;;;;10.70;5.83;;;;;;;-3.03;94.71;98810.66;5076264;28;20426;-70
2021/12/21 05:26:18;;;;;;;8.40;5.00;;;;;;;-2.96;94.22;98817.06;5076217;28;20455;-70
2021/12/21 05:28:44;;;;;;;10.20;5.83;;;;;;;-3.08;94.99;98815.41;5076384;28;20428;-72
2021/12/21 05:31:11;;;;;;;10.30;5.70;;;;;;;-3.07;94.82;98814.44;5076427;28;20424;-73
2021/12/21 05:33:37;;;;;;;10.10;5.40;;;;;;;-3.08;95.33;98807.59;5076289;28;20436;-72
2021/12/21 05:36:04;;;;;;;11.30;5.83;;;;;;;-3.04;95.20;98808.19;5075748;28;20449;-73
2021/12/21 05:38:33;;;;;;;9.40;5.20;;;;;;;-3.05;94.88;98807.38;5076061;28;20433;-72
2021/12/21 05:41:03;;;;;;;9.43;5.47;;;;;;;-2.99;94.43;98800.88;5075505;28;20849;-72
2021/12/21 05:43:30;;;;;;;9.60;4.97;;;;;;;-3.01;94.34;98797.56;5075698;28;20434;-72
2021/12/21 05:45:56;;;;;;;7.13;5.20;;;;;;;-2.97;95.21;98801.56;5076022;28;20449;-72
2021/12/21 05:48:23;;;;;;;10.23;5.37;;;;;;;-3.02;94.34;98799.31;5075925;28;20417;-73
2021/12/21 05:50:50;;;;;;;12.20;5.20;;;;;;;-2.98;94.54;98792.94;5076063;28;20418;-73
2021/12/21 05:53:16;;;;;;;13.87;5.53;;;;;;;-3.06;94.40;98803.13;5076083;28;20429;-72
2021/12/21 05:55:42;;;;;;;8.80;5.27;;;;;;;-3.10;94.43;98799.09;5075899;28;20481;-71
2021/12/21 05:58:09;;;;;;;8.00;5.27;;;;;;;-3.03;95.03;98795.06;5075825;28;20477;-70
2021/12/21 06:00:36;;;;;;;12.50;6.13;;;;;;;-3.02;94.92;98796.72;5076868;28;20428;-70
2021/12/21 06:03:03;;;;;;;12.17;5.80;;;;;;;-3.02;94.92;98798.50;5079527;28;20860;-72
2021/12/21 06:05:30;;;;;;;8.30;5.70;;;;;;;-2.93;95.03;98797.81;5079652;28;20449;-72
2021/12/21 06:07:56;;;;;;;10.93;6.67;;;;;;;-3.05;94.57;98802.16;5079758;28;20425;-72
2021/12/21 06:10:28;;;;;;;10.47;6.17;;;;;;;-2.97;95.69;98805.03;5080463;28;20460;-73
2021/12/21 06:15:47;;;;;;;9.00;5.80;;;;;;;-3.13;95.08;98806.28;5079372;28;20506;-72
2021/12/21 06:24:19;;;;;;;8.50;6.00;;;;;;;-3.10;95.34;98809.50;5079112;28;20491;-70
2021/12/21 06:26:34;;;;;;;14.00;5.97;;;;;;;-3.14;95.82;98799.41;5079001;28;20487;-71
2021/12/21 06:29:01;;;;;;;11.37;6.00;;;;;;;-3.18;95.79;98805.78;5079286;28;20868;-70
2021/12/21 06:31:27;;;;;;;14.90;6.23;;;;;;;-3.16;95.40;98802.13;5079304;28;20196;-70
2021/12/21 06:33:54;;;;;;;9.43;5.97;;;;;;;-3.21;95.23;98803.44;5079796;28;20710;-70
2021/12/21 06:36:21;;;;;;;8.87;5.43;;;;;;;-3.20;95.55;98798.09;5078723;28;20456;-71
2021/12/21 06:38:47;;;;;;;12.83;5.63;;;;;;;-3.13;95.75;98804.50;5079261;28;20428;-70
2021/12/21 06:41:14;;;;;;;12.97;6.53;;;;;;;-3.18;95.92;98801.44;5078823;28;20432;-73
2021/12/21 06:43:40;;;;;;;9.87;5.87;;;;;;;-3.10;96.06;98798.25;5078899;28;20436;-72
2021/12/21 06:46:14;;;;;;;13.90;6.13;;;;;;;-3.20;95.47;98803.31;5078766;28;20453;-73
2021/12/21 06:51:31;;;;;;;11.63;6.13;;;;;;;-3.12;94.73;98800.16;5078799;28;20432;-72
2021/12/21 06:53:58;;;;;;;11.77;6.20;;;;;;;-3.15;94.81;98797.78;5078593;28;20436;-72
2021/12/21 06:56:27;;;;;;;16.70;6.67;;;;;;;-3.12;94.74;98793.16;5078342;28;20449;-72
2021/12/21 06:58:55;;;;;;;16.10;6.27;;;;;;;-3.19;94.01;98796.34;5078448;28;20731;-72
2021/12/21 07:01:23;;;;;;;12.60;5.67;;;;;;;-3.18;94.68;98801.44;5078723;28;20432;-72
2021/12/21 07:03:49;;;;;;;10.20;5.73;;;;;;;-3.15;93.45;98789.97;5078690;28;20508;-72
2021/12/21 07:06:18;;;;;;;11.90;5.70;;;;;;;-3.13;93.95;98798.47;5078119;28;20915;-71
2021/12/21 07:08:48;;;;;;;13.90;6.00;;;;;;;-3.18;94.40;98796.22;5078328;28;20855;-71
2021/12/21 07:11:23;;;;;;;9.50;5.60;;;;;;;-3.18;94.38;98806.63;5078095;28;20453;-70
2021/12/21 07:19:18;;;;;;;13.07;5.97;;;;;;;-3.01;93.04;98813.16;5078286;28;20512;-71
2021/12/21 07:21:45;;;;;;;11.67;5.77;;;;;;;-3.08;93.27;98807.59;5078256;28;20434;-70
2021/12/21 07:24:11;;;;;;;9.77;5.37;;;;;;;-3.00;92.66;98820.84;5078275;28;20725;-70
2021/12/21 07:26:37;;;;;;;10.37;6.00;;;;;;;-2.96;92.09;98806.66;5078283;28;20421;-70
2021/12/21 07:29:05;;;;;;;10.17;5.63;;;;;;;-2.88;92.37;98803.47;5078752;28;20425;-70
2021/12/21 07:31:32;;;;;;;10.47;5.10;;;;;;;-2.90;92.10;98815.75;5078175;28;20418;-70
2021/12/21 07:33:59;;;;;;;11.07;6.57;;;;;;;-2.92;92.67;98823.72;5078330;28;20417;-72
2021/12/21 07:36:29;;;;;;;19.67;6.43;;;;;;;-2.90;92.29;98826.16;5078145;28;20514;-70
2021/12/21 07:38:56;;;;;;;12.37;5.57;;;;;;;-2.92;92.97;98828.91;5077833;28;20484;-71
2021/12/21 07:41:22;;;;;;;9.00;5.37;;;;;;;-3.02;93.91;98821.91;5078027;28;20430;-70
2021/12/21 07:43:49;;;;;;;13.50;6.27;;;;;;;-2.97;94.19;98831.03;5077865;28;20425;-70
2021/12/21 07:46:15;;;;;;;9.03;5.10;;;;;;;-2.89;93.05;98828.66;5078037;28;20449;-71
2021/12/21 07:48:42;;;;;;;16.13;6.17;;;;;;;-2.85;93.84;98839.69;5078081;28;20494;-70
2021/12/21 07:51:09;;;;;;;10.50;6.00;;;;;;;-2.86;94.16;98840.59;5077638;28;20424;-70
2021/12/21 07:53:36;;;;;;;11.90;6.17;;;;;;;-2.91;93.73;98840.13;5077966;28;20426;-71
2021/12/21 07:56:03;;;;;;;13.10;6.83;;;;;;;-2.90;93.85;98841.78;5077903;28;20454;-70
2021/12/21 07:58:30;;;;;;;17.93;6.27;;;;;;;-2.86;93.98;98841.44;5077442;28;20465;-70
2021/12/21 08:00:58;;;;;;;11.07;5.63;;;;;;;-2.73;93.41;98834.34;5077282;28;20808;-70
2021/12/21 08:03:25;;;;;;;12.93;6.63;;;;;;;-2.66;93.82;98835.53;5077678;28;20697;-71
2021/12/21 08:05:54;;;;;;;8.87;5.67;;;;;;;-2.71;92.78;98835.06;5077446;28;20979;-71
2021/12/21 08:08:23;;;;;;;11.17;5.50;;;;;;;-2.58;92.86;98840.16;5077461;28;20448;-71
2021/12/21 08:10:53;;;;;;;10.70;5.57;;;;;;;-2.61;93.08;98840.41;5076934;28;20453;-71
2021/12/21 08:13:20;;;;;;;12.67;6.43;;;;;;;-2.44;91.95;98840.72;5077384;28;20430;-71
2021/12/21 08:15:47;;;;;;;14.63;5.87;;;;;;;-2.45;92.31;98835.63;5077540;28;20464;-71
2021/12/21 08:18:14;;;;;;;11.03;6.00;;;;;;;-2.46;92.41;98845.25;5077176;28;20514;-71
2021/12/21 08:20:42;;;;;;;12.73;5.50;;;;;;;-2.40;91.96;98846.56;5076794;28;20833;-71
2021/12/21 08:23:08;;;;;;;10.03;5.53;;;;;;;-2.33;92.50;98842.50;5076438;28;20970;-71
2021/12/21 08:25:37;;;;;;;9.03;5.63;;;;;;;-2.27;91.29;98837.66;5076905;28;20453;-71
2021/12/21 08:28:06;;;;;;;12.03;5.73;;;;;;;-2.18;91.62;98849.94;5076806;28;20450;-71
2021/12/21 08:30:32;;;;;;;12.97;6.03;;;;;;;-2.13;91.48;98845.19;5077493;28;20516;-71
2021/12/21 08:32:59;;;;;;;13.00;6.07;;;;;;;-2.12;91.40;98846.03;5077347;28;20425;-71
2021/12/21 08:35:26;;;;;;;11.97;5.83;;;;;;;-2.15;90.61;98846.28;5077116;28;20492;-73
2021/12/21 08:38:00;;;;;;;11.30;6.13;;;;;;;-2.15;89.71;98844.50;5076748;28;20515;-73
2021/12/21 08:40:26;;;;;;;12.27;6.53;;;;;;;-2.08;90.34;98853.47;5077018;28;20513;-70
2021/12/21 08:42:53;;;;;;;15.47;6.27;;;;;;;-2.10;89.83;98852.78;5076482;28;20860;-71
2021/12/21 08:45:20;;;;;;;13.37;6.53;;;;;;;-2.09;89.91;98857.03;5077177;28;20462;-71
2021/12/21 08:47:46;;;;;;;14.80;5.90;;;;;;;-2.03;89.41;98851.34;5076848;28;20421;-73
2021/12/21 08:50:14;;;;;;;12.03;6.83;;;;;;;-1.88;89.27;98847.53;5076904;28;20424;-73
2021/12/21 08:52:40;;;;;;;13.70;5.93;;;;;;;-1.90;88.91;98846.00;5076958;28;20425;-73
2021/12/21 08:55:10;;;;;;;8.87;5.70;;;;;;;-1.98;90.41;98845.78;5076512;28;20896;-73
2021/12/21 08:57:37;;;;;;;10.37;5.73;;;;;;;-1.95;91.38;98835.09;5077496;28;20757;-71
2021/12/21 09:00:07;;;;;;;12.77;6.63;;;;;;;-1.86;90.20;98835.19;5076640;28;20448;-71
2021/12/21 09:02:36;;;;;;;10.37;5.80;;;;;;;-1.78;90.46;98837.19;5076486;28;20417;-71
2021/12/21 09:05:07;;;;;;;10.30;6.40;;;;;;;-1.78;91.06;98835.41;5076361;28;20457;-71
2021/12/21 09:07:34;;;;;;;8.10;5.83;;;;;;;-1.69;90.74;98837.28;5076106;28;20418;-71
2021/12/21 09:10:01;;;;;;;13.33;6.00;;;;;;;-1.57;90.63;98825.03;5076483;28;20430;-71
2021/12/21 09:12:27;;;;;;;10.10;6.20;;;;;;;-1.47;90.00;98832.00;5076110;28;20898;-71
2021/12/21 09:14:53;;;;;;;8.37;4.83;;;;;;;-1.36;89.33;98831.91;5076405;28;20741;-71
2021/12/21 09:17:20;;;;;;;9.10;5.10;;;;;;;-1.34;88.87;98832.63;5076350;28;20492;-71
2021/12/21 09:19:46;;;;;;;8.70;4.67;;;;;;;-1.35;89.11;98833.56;5076558;28;20428;-71
2021/12/21 09:22:13;;;;;;;10.27;4.93;;;;;;;-1.20;89.29;98837.53;5076420;28;20425;-71
2021/12/21 09:24:39;;;;;;;8.43;5.40;;;;;;;-1.09;88.76;98836.63;5076346;28;20457;-71
2021/12/21 09:27:05;;;;;;;10.30;5.30;;;;;;;-1.14;89.25;98833.56;5076370;28;20476;-71
2021/12/21 09:29:32;;;;;;;10.07;6.37;;;;;;;-1.00;88.79;98828.88;5076449;28;20433;-71
2021/12/21 09:31:58;;;;;;;8.67;5.87;;;;;;;-0.88;87.29;98832.25;5076376;28;20432;-71
2021/12/21 09:34:24;;;;;;;11.27;5.53;;;;;;;-0.83;86.66;98835.28;5076244;28;20424;-71
2021/12/21 09:36:52;;;;;;;9.27;5.20;;;;;;;-0.77;86.73;98838.22;5075641;28;20430;-71
2021/12/21 09:39:18;;;;;;;10.40;5.83;;;;;;;-0.78;87.09;98836.56;5076124;28;20526;-71
2021/12/21 09:41:45;;;;;;;7.70;5.43;;;;;;;-0.77;86.85;98832.19;5076194;28;20421;-71
2021/12/21 09:44:13;;;;;;;8.07;5.33;;;;;;;-0.75;86.54;98838.09;5076016;28;20424;-71
2021/12/21 09:46:40;;;;;;;10.77;5.43;;;;;;;-0.67;87.08;98831.25;5076009;28;20427;-71
2021/12/21 09:49:06;;;;;;;10.10;4.90;;;;;;;-0.69;86.42;98832.34;5075727;28;20716;-71
2021/12/21 09:51:32;;;;;;;8.30;5.70;;;;;;;-0.59;85.59;98836.66;5075894;28;20418;-71
2021/12/21 09:53:59;;;;;;;8.20;5.63;;;;;;;-0.41;84.03;98829.84;5075979;28;20425;-71
2021/12/21 09:56:26;;;;;;;8.67;6.00;;;;;;;-0.50;86.16;98832.41;5075895;28;20460;-70
2021/12/21 09:58:52;;;;;;;8.17;5.67;;;;;;;-0.58;85.80;98840.91;5075507;28;20772;-70
2021/12/21 10:01:21;;;;;;;8.93;6.37;;;;;;;-0.58;86.86;98834.88;5075748;28;20841;-68
2021/12/21 10:03:48;;;;;;;11.30;5.87;;;;;;;-0.38;84.78;98832.22;5076018;28;20426;-68
2021/12/21 10:06:15;;;;;;;8.20;6.13;;;;;;;-0.33;85.71;98835.25;5075496;28;20912;-68
2021/12/21 10:08:42;;;;;;;10.23;5.50;;;;;;;-0.24;84.48;98831.00;5075355;28;20418;-68
2021/12/21 10:11:17;;;;;;;12.37;6.10;;;;;;;-0.43;85.47;98823.94;5075334;28;20449;-67
2021/12/21 10:13:43;;;;;;;10.13;6.03;;;;;;;-0.45;86.16;98820.63;5075718;28;20417;-67
2021/12/21 10:16:10;;;;;;;9.57;6.10;;;;;;;-0.39;84.41;98820.13;5076074;28;20457;-68
2021/12/21 10:18:41;;;;;;;7.77;5.43;;;;;;;-0.29;84.93;98822.75;5075306;28;20779;-68
2021/12/21 10:21:14;;;;;;;9.07;5.80;;;;;;;-0.18;83.72;98809.59;5075700;28;20417;-67
2021/12/21 10:23:43;;;;;;;12.37;5.97;;;;;;;-0.29;84.96;98828.81;5076191;28;20421;-69
2021/12/21 10:26:12;;;;;;;10.60;5.80;;;;;;;-0.24;85.11;98815.34;5075342;28;20456;-68
2021/12/21 10:28:44;;;;;;;8.67;5.33;;;;;;;-0.24;83.91;98807.50;5075712;28;20413;-68
2021/12/21 10:31:29;;;;;;;8.53;5.07;;;;;;;-0.26;83.89;98809.44;5075375;28;20418;-68
2021/12/21 10:33:58;;;;;;;8.80;5.53;;;;;;;-0.23;85.05;98809.97;5075325;28;20856;-68
2021/12/21 10:36:29;;;;;;;7.70;5.47;;;;;;;-0.20;85.22;98804.50;5075597;28;20529;-68
2021/12/21 10:38:59;;;;;;;9.30;5.40;;;;;;;-0.17;84.80;98804.22;5075379;28;20461;-68
2021/12/21 10:41:39;;;;;;;9.03;4.87;;;;;;;-0.03;83.26;98811.66;5075407;28;20425;-69
2021/12/21 10:44:11;;;;;;;7.43;5.10;;;;;;;0.24;81.48;98798.78;5074916;28;20695;-69
2021/12/21 10:46:40;;;;;;;7.47;4.83;;;;;;;0.17;82.49;98796.03;5076398;28;20430;-68
2021/12/21 10:49:09;;;;;;;9.93;4.90;;;;;;;0.10;83.17;98795.75;5078852;28;20421;-68
2021/12/21 10:51:37;;;;;;;9.00;5.23;;;;;;;0.22;81.84;98787.63;5079001;28;20200;-68
2021/12/21 10:54:03;;;;;;;8.47;5.20;;;;;;;0.24;82.22;98790.94;5078973;28;20460;-69
2021/12/21 10:56:30;;;;;;;9.00;5.30;;;;;;;0.26;82.94;98790.00;5078500;28;20449;-68
2021/12/21 10:58:56;;;;;;;10.37;5.83;;;;;;;0.27;83.39;98791.63;5078790;28;20465;-68
2021/12/21 11:01:27;;;;;;;9.83;5.13;;;;;;;0.18;82.98;98788.88;5078533;28;20193;-68
2021/12/21 11:03:55;;;;;;;9.13;5.30;;;;;;;0.49;81.17;98784.31;5078490;28;20189;-68
2021/12/21 11:06:30;;;;;;;9.30;5.37;;;;;;;0.28;81.33;98779.22;5078219;28;20651;-68
2021/12/21 11:08:57;;;;;;;11.63;5.67;;;;;;;0.59;81.46;98784.34;5078324;28;20886;-68
2021/12/21 11:11:32;;;;;;;9.80;5.03;;;;;;;0.38;81.81;98774.03;5078633;28;20759;-68
2021/12/21 11:14:00;;;;;;;6.60;5.20;;;;;;;0.42;82.60;98775.41;5078504;28;20591;-68
2021/12/21 11:16:38;;;;;;;7.20;5.07;;;;;;;0.40;83.04;98766.84;5078299;28;20770;-68
2021/12/21 11:19:04;;;;;;;10.27;4.77;;;;;;;0.51;80.75;98766.72;5078536;28;20205;-72
2021/12/21 11:21:32;;;;;;;7.67;4.90;;;;;;;0.68;80.24;98770.41;5078324;28;20193;-72
2021/12/21 11:24:05;;;;;;;7.37;5.00;;;;;;;0.58;80.45;98769.59;5078362;28;20196;-72
2021/12/21 11:26:33;;;;;;;8.43;4.30;;;;;;;0.57;80.46;98768.78;5077972;28;20228;-73
2021/12/21 11:29:05;;;;;;;8.83;4.60;;;;;;;0.65;80.89;98763.66;5078028;28;20613;-72
2021/12/21 11:31:37;;;;;;;10.37;4.80;;;;;;;0.67;81.10;98760.91;5078715;28;20215;-72
2021/12/21 11:34:09;;;;;;;8.30;4.97;;;;;;;0.64;80.62;98759.41;5078387;28;20199;-72
2021/12/21 11:39:23;;;;;;;8.60;4.87;;;;;;;0.73;80.90;98747.25;5078075;28;20286;-73
2021/12/21 11:41:51;;;;;;;7.00;4.90;;;;;;;0.91;80.46;98746.41;5077857;28;20189;-72
2021/12/21 11:44:27;;;;;;;7.37;4.93;;;;;;;0.80;80.75;98743.13;5077918;28;20216;-73
2021/12/21 11:46:58;;;;;;;8.83;5.10;;;;;;;0.78;81.04;98739.81;5077903;28;20204;-72
2021/12/21 11:49:35;;;;;;;8.13;5.50;;;;;;;0.70;81.26;98751.00;5077876;28;20189;-73
2021/12/21 11:52:14;;;;;;;9.57;5.23;;;;;;;0.86;80.73;98753.03;5077970;28;20197;-72
2021/12/21 11:54:50;;;;;;;8.47;5.30;;;;;;;1.06;79.10;98744.13;5077827;28;20307;-73
2021/12/21 11:57:19;;;;;;;8.60;4.80;;;;;;;0.86;80.72;98742.56;5077904;28;20288;-72
2021/12/21 11:59:48;;;;;;;6.93;4.63;;;;;;;1.08;78.88;98737.78;5076897;28;20209;-72
2021/12/21 12:02:15;;;;;;;8.27;4.40;;;;;;;1.15;77.78;98741.50;5077643;28;20205;-67
2021/12/21 12:04:41;;;;;;;8.53;4.73;;;;;;;0.96;77.84;98733.72;5077641;28;20526;-67
2021/12/21 12:07:17;;;;;;;9.20;4.73;;;;;;;0.92;78.70;98732.34;5077507;28;20216;-72